Time;durP1;ratioP1;P1;durP2;ratioP2;P2;SDS_P1;SDS_P2;PMS_P1;PMS_P2;Temp;Humidity;BMP_temperature;BMP_pressure;BME280_temperature;BME280_humidity;BME280_pressure;Samples;Min_cycle;Max_cycle;Signal;HPM_P1;HPM_P2
2023/08/02 00:00:56;;;;;;;2.97;2.77;;;21.00;99.90;;;;;;5107528;28;20427;-82
2023/08/02 00:03:22;;;;;;;2.27;1.90;;;21.00;99.90;;;;;;5108168;28;20475;-82
2023/08/02 00:05:57;;;;;;;4.47;2.90;;;21.00;99.90;;;;;;5127453;27;20895;-82
2023/08/02 00:08:23;;;;;;;4.60;2.67;;;20.90;99.90;;;;;;5130200;27;20183;-74
2023/08/02 00:10:50;;;;;;;5.50;2.70;;;20.90;99.90;;;;;;5111111;27;20864;-74
2023/08/02 00:13:15;;;;;;;4.73;2.77;;;20.90;99.90;;;;;;5130128;27;20415;-82
2023/08/02 00:15:41;;;;;;;3.67;3.23;;;20.90;99.90;;;;;;5111136;27;20977;-75
2023/08/02 00:18:07;;;;;;;3.80;2.75;;;20.90;99.90;;;;;;5111083;27;20426;-74
2023/08/02 00:20:33;;;;;;;3.90;3.30;;;20.80;99.90;;;;;;5129663;27;20429;-74
2023/08/02 00:22:59;;;;;;;4.90;3.03;;;20.80;99.90;;;;;;5110978;27;20409;-82
2023/08/02 00:25:25;;;;;;;4.47;3.27;;;20.70;99.90;;;;;;5129323;27;20422;-82
2023/08/02 00:27:51;;;;;;;4.30;3.60;;;20.70;99.90;;;;;;5111360;27;20204;-82
2023/08/02 00:30:16;;;;;;;4.30;3.90;;;20.70;99.90;;;;;;5128946;27;20442;-75
2023/08/02 00:32:46;;;;;;;6.23;4.00;;;20.70;99.90;;;;;;5111260;27;20603;-81
2023/08/02 00:35:13;;;;;;;4.40;3.90;;;20.70;99.90;;;;;;5128137;27;20224;-82
2023/08/02 00:37:38;;;;;;;7.07;4.67;;;20.80;99.90;;;;;;5110980;27;20911;-82
2023/08/02 00:40:05;;;;;;;5.27;4.40;;;20.70;99.90;;;;;;5110665;27;20482;-82
2023/08/02 00:42:31;;;;;;;4.87;4.37;;;20.80;99.90;;;;;;5111080;27;20471;-74
2023/08/02 00:44:56;;;;;;;7.03;4.90;;;20.80;99.90;;;;;;5129111;27;20546;-82
2023/08/02 00:47:24;;;;;;;5.60;5.00;;;20.80;99.90;;;;;;5129503;27;20541;-80
2023/08/02 00:49:50;;;;;;;5.63;5.10;;;20.80;99.90;;;;;;5128112;27;20203;-75
2023/08/02 00:52:16;;;;;;;7.90;5.30;;;20.80;99.90;;;;;;5110601;27;20464;-82
2023/08/02 00:54:42;;;;;;;6.20;5.23;;;20.80;99.90;;;;;;5128894;27;20435;-74
2023/08/02 00:57:10;;;;;;;7.33;5.50;;;20.70;99.90;;;;;;5110956;27;20173;-77
2023/08/02 00:59:38;;;;;;;5.40;4.60;;;20.70;99.90;;;;;;5128572;27;20250;-82
2023/08/02 01:02:06;;;;;;;7.67;5.50;;;20.70;99.90;;;;;;5110556;27;20438;-82
2023/08/02 01:04:33;;;;;;;7.03;5.50;;;20.70;99.90;;;;;;5128710;27;20442;-75
2023/08/02 01:07:12;;;;;;;7.80;5.30;;;20.70;99.90;;;;;;5110423;27;20428;-74
2023/08/02 01:09:47;;;;;;;7.23;5.40;;;20.70;99.90;;;;;;5128470;27;21010;-74
2023/08/02 01:12:15;;;;;;;9.27;5.63;;;20.70;99.90;;;;;;5110192;27;20934;-82
2023/08/02 01:14:43;;;;;;;6.73;4.50;;;20.60;99.90;;;;;;5109405;27;20660;-82
2023/08/02 01:17:11;;;;;;;5.80;4.70;;;20.60;99.90;;;;;;5110221;27;20434;-75
2023/08/02 01:19:37;;;;;;;5.17;4.57;;;20.60;99.90;;;;;;5127788;27;20491;-81
2023/08/02 01:22:03;;;;;;;6.00;5.33;;;20.60;99.90;;;;;;5110654;27;20734;-82
2023/08/02 01:24:34;;;;;;;7.57;4.50;;;20.70;99.90;;;;;;5128177;27;20199;-82
2023/08/02 01:27:08;;;;;;;6.43;4.70;;;20.70;99.90;;;;;;5128499;27;20924;-74
2023/08/02 01:29:36;;;;;;;5.90;4.10;;;20.60;99.90;;;;;;5109591;27;20809;-75
2023/08/02 01:32:03;;;;;;;5.23;4.33;;;20.70;99.90;;;;;;5109670;27;20849;-74
2023/08/02 01:34:30;;;;;;;5.87;4.30;;;20.70;99.90;;;;;;5128261;27;20916;-83
2023/08/02 01:36:56;;;;;;;4.60;4.13;;;20.70;99.90;;;;;;5109287;27;20422;-74
2023/08/02 01:39:22;;;;;;;5.63;3.90;;;20.70;99.90;;;;;;5109214;27;20482;-75
2023/08/02 01:41:47;;;;;;;5.00;4.03;;;20.70;99.90;;;;;;5109925;27;20337;-82
2023/08/02 01:44:13;;;;;;;6.53;4.40;;;20.70;99.90;;;;;;5127991;27;20201;-75
2023/08/02 01:46:39;;;;;;;3.83;3.43;;;20.70;99.90;;;;;;5109437;27;20186;-74
2023/08/02 01:49:05;;;;;;;5.60;4.30;;;20.70;99.90;;;;;;5109062;27;20617;-82
2023/08/02 01:51:30;;;;;;;3.83;3.43;;;20.60;99.90;;;;;;5109578;27;20210;-82
2023/08/02 01:53:56;;;;;;;4.07;3.70;;;20.60;99.90;;;;;;5128106;27;20632;-83
2023/08/02 01:56:22;;;;;;;4.70;4.30;;;20.60;99.90;;;;;;5127873;27;20254;-74
2023/08/02 01:58:47;;;;;;;4.63;3.97;;;20.60;99.90;;;;;;5128072;27;20210;-74
2023/08/02 02:01:13;;;;;;;4.63;3.60;;;20.60;99.90;;;;;;5127472;27;20201;-81
2023/08/02 02:03:39;;;;;;;4.37;3.80;;;20.50;99.90;;;;;;5127395;27;20183;-75
2023/08/02 02:06:05;;;;;;;5.27;3.50;;;20.50;99.90;;;;;;5127353;27;20263;-82
2023/08/02 02:08:30;;;;;;;6.90;3.87;;;20.60;99.90;;;;;;5109222;27;20190;-74
2023/08/02 02:10:56;;;;;;;5.57;4.23;;;20.50;99.90;;;;;;5127525;27;21075;-75
2023/08/02 02:13:23;;;;;;;4.83;4.10;;;20.50;99.90;;;;;;5108906;27;20194;-75
2023/08/02 02:15:49;;;;;;;5.00;3.80;;;20.50;99.90;;;;;;5127453;27;20248;-82
2023/08/02 02:18:15;;;;;;;4.20;3.83;;;20.50;99.90;;;;;;5108739;27;21022;-83
2023/08/02 02:20:41;;;;;;;4.60;4.17;;;20.50;99.90;;;;;;5127607;27;20201;-82
2023/08/02 02:23:07;;;;;;;4.03;3.60;;;20.50;99.90;;;;;;5127712;27;20518;-82
2023/08/02 02:25:33;;;;;;;5.30;3.20;;;20.50;99.90;;;;;;5108642;27;20837;-81
2023/08/02 02:27:59;;;;;;;4.13;3.10;;;20.50;99.90;;;;;;5126776;27;20802;-75
2023/08/02 02:30:24;;;;;;;4.30;3.70;;;20.50;99.90;;;;;;5108574;27;20195;-82
2023/08/02 02:32:50;;;;;;;7.47;3.77;;;20.50;99.90;;;;;;5126998;27;20493;-75
2023/08/02 02:35:16;;;;;;;4.00;3.60;;;20.50;99.90;;;;;;5126734;27;20198;-74
2023/08/02 02:37:42;;;;;;;4.40;3.27;;;20.50;99.90;;;;;;5108801;27;20190;-75
2023/08/02 02:40:09;;;;;;;4.93;4.00;;;20.50;99.90;;;;;;5126724;27;20492;-75
2023/08/02 02:42:38;;;;;;;5.10;3.90;;;20.40;99.90;;;;;;5125638;27;20206;-75
2023/08/02 02:45:05;;;;;;;4.60;3.50;;;20.40;99.90;;;;;;5126872;27;21091;-82
2023/08/02 02:47:31;;;;;;;7.03;3.33;;;20.40;99.90;;;;;;5127253;27;20394;-82
2023/08/02 02:49:57;;;;;;;4.13;3.47;;;20.40;99.90;;;;;;5126151;27;20499;-82
2023/08/02 02:52:23;;;;;;;4.60;3.80;;;20.40;99.90;;;;;;5126633;27;20917;-76
2023/08/02 02:54:49;;;;;;;4.77;3.80;;;20.40;99.90;;;;;;5126777;27;20671;-83
2023/08/02 02:57:16;;;;;;;4.40;3.90;;;20.40;99.90;;;;;;5108327;27;20884;-81
2023/08/02 02:59:43;;;;;;;4.40;4.00;;;20.40;99.90;;;;;;5107641;27;20941;-82
2023/08/02 03:02:08;;;;;;;6.50;3.53;;;20.40;99.90;;;;;;5108443;27;20538;-74
2023/08/02 03:04:34;;;;;;;4.47;3.80;;;20.40;99.90;;;;;;5107937;27;20450;-82
2023/08/02 03:07:00;;;;;;;5.40;3.70;;;20.40;99.90;;;;;;5126485;27;20171;-75
2023/08/02 03:09:26;;;;;;;4.67;3.63;;;20.40;99.90;;;;;;5126197;27;20285;-75
2023/08/02 03:11:51;;;;;;;4.43;3.53;;;20.40;99.90;;;;;;5107922;27;20179;-76
2023/08/02 03:14:17;;;;;;;7.37;4.30;;;20.40;99.90;;;;;;5107481;27;20240;-81
2023/08/02 03:16:43;;;;;;;4.93;3.60;;;20.40;99.90;;;;;;5126853;27;20637;-81
2023/08/02 03:19:10;;;;;;;4.57;4.17;;;20.40;99.90;;;;;;5107400;27;20390;-74
2023/08/02 03:21:36;;;;;;;5.20;4.30;;;20.50;99.90;;;;;;5127028;28;20395;-82
2023/08/02 03:24:02;;;;;;;5.10;3.70;;;20.40;99.90;;;;;;5107562;27;20438;-82
2023/08/02 03:26:28;;;;;;;4.63;3.90;;;20.50;99.90;;;;;;5107740;28;20262;-82
2023/08/02 03:28:54;;;;;;;4.20;3.77;;;20.50;99.90;;;;;;5107999;27;20422;-75
2023/08/02 03:31:19;;;;;;;5.17;4.23;;;20.50;99.90;;;;;;5107614;28;20261;-81
2023/08/02 03:33:45;;;;;;;4.50;3.83;;;20.50;99.90;;;;;;5125985;28;20631;-75
2023/08/02 03:36:11;;;;;;;5.23;4.00;;;20.50;99.90;;;;;;5107152;28;20299;-74
2023/08/02 03:38:37;;;;;;;5.50;4.20;;;20.50;99.90;;;;;;5126023;28;20237;-82
2023/08/02 03:41:02;;;;;;;7.83;4.70;;;20.50;99.90;;;;;;5127811;27;20684;-75
2023/08/02 03:43:28;;;;;;;4.60;3.63;;;20.50;99.90;;;;;;5129724;27;20707;-80
2023/08/02 03:45:54;;;;;;;4.83;4.13;;;20.50;99.90;;;;;;5110208;27;20286;-82
2023/08/02 03:48:19;;;;;;;6.47;4.73;;;20.50;99.90;;;;;;5129822;27;20183;-82
2023/08/02 03:50:45;;;;;;;4.83;3.90;;;20.50;99.90;;;;;;5129913;27;20210;-82
2023/08/02 03:53:11;;;;;;;4.83;4.23;;;20.50;99.90;;;;;;5111563;27;20684;-82
2023/08/02 03:55:37;;;;;;;4.83;4.33;;;20.40;99.90;;;;;;5129661;27;20690;-74
2023/08/02 03:58:04;;;;;;;4.73;4.03;;;20.50;99.90;;;;;;5130003;27;20173;-82
2023/08/02 04:00:29;;;;;;;5.03;4.10;;;20.40;99.90;;;;;;5129883;27;20225;-82
2023/08/02 04:02:55;;;;;;;5.67;4.30;;;20.40;99.90;;;;;;5111531;27;20899;-82
2023/08/02 04:05:21;;;;;;;5.70;4.70;;;20.50;99.90;;;;;;5111367;27;20245;-82
2023/08/02 04:07:47;;;;;;;6.13;4.63;;;20.50;99.90;;;;;;5129940;27;20422;-81
2023/08/02 04:10:13;;;;;;;5.83;4.67;;;20.50;99.90;;;;;;5110616;27;20308;-82
2023/08/02 04:12:39;;;;;;;5.23;4.60;;;20.50;99.90;;;;;;5111354;27;20441;-80
2023/08/02 04:15:05;;;;;;;4.67;4.00;;;20.50;99.90;;;;;;5129196;27;20203;-75
2023/08/02 04:17:31;;;;;;;6.13;4.50;;;20.50;99.90;;;;;;5111304;27;20437;-82
2023/08/02 04:19:57;;;;;;;5.73;4.50;;;20.50;99.90;;;;;;5110416;27;20479;-75
2023/08/02 04:22:23;;;;;;;5.63;5.03;;;20.50;99.90;;;;;;5111161;27;20230;-82
2023/08/02 04:24:49;;;;;;;4.93;4.43;;;20.50;99.90;;;;;;5110430;27;20467;-75
2023/08/02 04:27:14;;;;;;;8.17;5.30;;;20.50;99.90;;;;;;5110355;27;20325;-81
2023/08/02 04:29:40;;;;;;;6.30;4.80;;;20.50;99.90;;;;;;5128981;27;20302;-74
2023/08/02 04:32:06;;;;;;;4.67;4.23;;;20.50;99.90;;;;;;5111062;27;20176;-81
2023/08/02 04:34:31;;;;;;;7.40;4.93;;;20.50;99.90;;;;;;5128863;27;20221;-83
2023/08/02 04:36:57;;;;;;;5.80;4.10;;;20.50;99.90;;;;;;5110339;27;20459;-81
2023/08/02 04:39:23;;;;;;;6.93;4.60;;;20.50;99.90;;;;;;5128982;27;20222;-82
2023/08/02 04:41:54;;;;;;;5.57;4.60;;;20.50;99.90;;;;;;5129159;27;20643;-74
2023/08/02 04:44:20;;;;;;;6.77;4.80;;;20.50;99.90;;;;;;5127773;27;20570;-82
2023/08/02 04:46:46;;;;;;;6.20;5.40;;;20.50;99.90;;;;;;5110516;27;20410;-75
2023/08/02 04:49:12;;;;;;;5.40;4.90;;;20.50;99.90;;;;;;5109962;27;20598;-75
2023/08/02 04:51:38;;;;;;;5.90;5.20;;;20.50;99.90;;;;;;5109416;27;20446;-75
2023/08/02 04:54:05;;;;;;;5.60;4.37;;;20.50;99.90;;;;;;5128808;27;20481;-75
2023/08/02 04:56:31;;;;;;;5.43;4.93;;;20.40;99.90;;;;;;5127208;27;20174;-82
2023/08/02 04:58:58;;;;;;;5.50;4.53;;;20.40;99.90;;;;;;5108671;27;20470;-74
2023/08/02 05:01:23;;;;;;;6.77;5.27;;;20.50;99.90;;;;;;5109019;27;20764;-74
2023/08/02 05:03:49;;;;;;;5.30;4.80;;;20.50;99.90;;;;;;5109736;27;20427;-76
2023/08/02 05:06:15;;;;;;;8.40;6.13;;;20.50;99.90;;;;;;5109733;27;20190;-81
2023/08/02 05:08:41;;;;;;;5.70;5.10;;;20.50;99.90;;;;;;5128888;27;20173;-76
2023/08/02 05:11:07;;;;;;;4.43;4.03;;;20.50;99.90;;;;;;5109637;27;20471;-83
2023/08/02 05:13:34;;;;;;;6.67;5.20;;;20.60;99.90;;;;;;5128661;27;20918;-83
2023/08/02 05:16:00;;;;;;;5.30;4.63;;;20.60;99.90;;;;;;5108481;27;20612;-75
2023/08/02 05:18:26;;;;;;;6.03;5.30;;;20.60;99.90;;;;;;5104225;28;20475;-84
2023/08/02 05:20:53;;;;;;;7.90;4.80;;;20.60;99.90;;;;;;5105785;28;20958;-76
2023/08/02 05:23:18;;;;;;;5.70;4.90;;;20.60;99.90;;;;;;5104192;28;20172;-83
2023/08/02 05:25:44;;;;;;;6.13;4.50;;;20.60;99.90;;;;;;5105272;28;20443;-82
2023/08/02 05:28:10;;;;;;;5.37;4.87;;;20.60;99.90;;;;;;5104644;28;20195;-81
2023/08/02 05:30:37;;;;;;;6.40;5.00;;;20.60;99.90;;;;;;5105942;28;20206;-83
2023/08/02 05:33:03;;;;;;;5.20;4.70;;;20.60;99.90;;;;;;5106269;28;20993;-75
2023/08/02 05:35:29;;;;;;;4.90;4.40;;;20.70;99.90;;;;;;5105638;28;20463;-82
2023/08/02 05:37:56;;;;;;;5.10;4.17;;;20.70;99.90;;;;;;5105666;28;20628;-82
2023/08/02 05:40:22;;;;;;;6.90;5.00;;;20.70;99.90;;;;;;5105494;28;20570;-75
2023/08/02 05:42:49;;;;;;;5.00;4.50;;;20.70;99.90;;;;;;5106689;28;20751;-82
2023/08/02 05:45:15;;;;;;;6.30;4.00;;;20.70;99.90;;;;;;5106872;28;20488;-82
2023/08/02 05:47:41;;;;;;;4.30;3.90;;;20.80;99.90;;;;;;5104917;28;20404;-83
2023/08/02 05:50:07;;;;;;;4.40;4.00;;;20.80;99.90;;;;;;5103496;28;20496;-75
2023/08/02 05:52:33;;;;;;;4.40;4.00;;;20.90;99.90;;;;;;5107790;28;20561;-75
2023/08/02 05:54:58;;;;;;;3.67;3.37;;;21.00;99.90;;;;;;5106001;28;20428;-75
2023/08/02 05:57:24;;;;;;;4.13;3.73;;;21.10;99.90;;;;;;5116421;27;20568;-81
2023/08/02 05:59:50;;;;;;;4.70;4.20;;;21.10;99.90;;;;;;5118827;27;20219;-82
2023/08/02 06:02:16;;;;;;;4.20;3.80;;;21.20;99.90;;;;;;5118800;27;20179;-75
2023/08/02 06:04:44;;;;;;;4.50;3.57;;;21.20;99.90;;;;;;5118319;27;21047;-74
2023/08/02 06:07:10;;;;;;;3.60;3.30;;;21.30;99.90;;;;;;5102870;28;20467;-82
2023/08/02 06:09:35;;;;;;;4.33;3.93;;;21.30;99.90;;;;;;5106309;27;20444;-82
2023/08/02 06:12:02;;;;;;;4.27;3.20;;;21.40;99.90;;;;;;5101397;27;20188;-83
2023/08/02 06:14:28;;;;;;;3.50;3.10;;;21.40;99.90;;;;;;5100671;27;20475;-82
2023/08/02 06:16:54;;;;;;;4.10;3.70;;;21.50;99.90;;;;;;5083985;28;20714;-74
2023/08/02 06:19:19;;;;;;;6.53;3.90;;;21.60;99.90;;;;;;5102744;28;20752;-75
2023/08/02 06:21:45;;;;;;;3.87;3.10;;;21.60;99.90;;;;;;5104205;28;20449;-75
2023/08/02 06:24:11;;;;;;;6.03;2.97;;;21.70;99.90;;;;;;5103394;28;20175;-83
2023/08/02 06:26:36;;;;;;;3.90;3.50;;;21.80;99.90;;;;;;5101457;28;20664;-75
2023/08/02 06:29:02;;;;;;;5.90;3.57;;;21.90;99.90;;;;;;5101145;28;20180;-75
2023/08/02 06:31:28;;;;;;;4.00;3.60;;;21.90;99.90;;;;;;5100878;27;20429;-83
2023/08/02 06:33:54;;;;;;;3.63;3.03;;;22.00;99.90;;;;;;5096673;28;20184;-75
2023/08/02 06:36:19;;;;;;;4.53;3.80;;;22.10;99.90;;;;;;5090262;28;20291;-75
2023/08/02 06:38:46;;;;;;;4.07;3.27;;;22.20;99.90;;;;;;5095934;28;20259;-83
2023/08/02 06:41:12;;;;;;;3.90;3.10;;;22.30;99.90;;;;;;5102101;27;20212;-83
2023/08/02 06:43:37;;;;;;;5.70;3.53;;;22.40;99.90;;;;;;5106720;27;20968;-75
2023/08/02 06:46:04;;;;;;;3.87;3.40;;;22.50;99.90;;;;;;5111710;27;20196;-81
2023/08/02 06:48:30;;;;;;;4.80;3.53;;;22.60;99.90;;;;;;5099032;28;20204;-83
2023/08/02 06:50:56;;;;;;;3.23;3.00;;;22.70;99.90;;;;;;5095123;28;20491;-83
2023/08/02 06:53:22;;;;;;;4.20;3.40;;;22.70;99.90;;;;;;5097223;28;20446;-83
2023/08/02 06:55:47;;;;;;;3.20;3.00;;;22.80;99.90;;;;;;5099873;28;20858;-75
2023/08/02 06:58:14;;;;;;;5.20;3.70;;;22.90;99.90;;;;;;5102471;28;20595;-75
2023/08/02 07:00:40;;;;;;;4.70;3.70;;;23.00;99.90;;;;;;5116671;27;20220;-76
2023/08/02 07:03:06;;;;;;;3.80;2.90;;;23.00;99.90;;;;;;5100098;28;20400;-83
2023/08/02 07:05:34;;;;;;;3.90;3.47;;;23.10;99.90;;;;;;5100294;28;20464;-84
2023/08/02 07:08:01;;;;;;;4.43;3.23;;;23.20;99.90;;;;;;5092732;28;20439;-75
2023/08/02 07:10:28;;;;;;;3.67;3.30;;;23.20;99.90;;;;;;5094884;28;20503;-84
2023/08/02 07:12:54;;;;;;;3.50;3.20;;;23.30;99.90;;;;;;5118522;27;21032;-83
2023/08/02 07:15:20;;;;;;;4.30;3.47;;;23.30;99.90;;;;;;5112798;27;20458;-75
2023/08/02 07:17:47;;;;;;;3.10;2.80;;;23.30;99.90;;;;;;5082460;28;20390;-82
2023/08/02 07:20:13;;;;;;;3.63;2.80;;;23.40;99.90;;;;;;5105522;28;20247;-75
2023/08/02 07:22:41;;;;;;;2.97;2.67;;;23.50;99.90;;;;;;5122676;28;20406;-75
2023/08/02 07:25:07;;;;;;;3.57;3.17;;;23.60;99.90;;;;;;5121387;28;20444;-78
2023/08/02 07:27:33;;;;;;;3.43;3.13;;;23.70;99.90;;;;;;5105775;28;20774;-76
2023/08/02 07:29:59;;;;;;;3.40;3.10;;;23.70;99.90;;;;;;5113014;27;20463;-77
2023/08/02 07:32:25;;;;;;;3.40;2.93;;;23.70;99.90;;;;;;5122651;28;20409;-76
2023/08/02 07:34:51;;;;;;;2.63;2.43;;;23.80;99.90;;;;;;5101516;28;20252;-76
2023/08/02 07:37:17;;;;;;;3.40;2.83;;;23.80;99.90;;;;;;5103956;28;21017;-76
2023/08/02 07:39:44;;;;;;;3.07;2.87;;;24.00;99.90;;;;;;5120081;27;20494;-82
2023/08/02 07:42:10;;;;;;;3.03;2.73;;;24.00;99.90;;;;;;5103483;28;20933;-76
2023/08/02 07:44:37;;;;;;;2.90;2.70;;;24.20;99.90;;;;;;5119604;28;20442;-83
2023/08/02 07:47:04;;;;;;;3.00;2.50;;;24.30;99.90;;;;;;5116674;28;21124;-83
2023/08/02 07:49:31;;;;;;;2.80;2.50;;;24.30;99.90;;;;;;5111987;28;21003;-83
2023/08/02 07:51:57;;;;;;;2.70;2.10;;;24.40;99.90;;;;;;5089816;28;20630;-77
2023/08/02 07:54:23;;;;;;;2.80;2.40;;;24.40;99.90;;;;;;5096008;28;20449;-77
2023/08/02 07:56:48;;;;;;;3.40;2.80;;;24.60;99.90;;;;;;5090316;28;20193;-77
2023/08/02 07:59:14;;;;;;;2.77;2.40;;;24.60;99.90;;;;;;5120170;28;21067;-83
2023/08/02 08:01:43;;;;;;;2.60;2.17;;;24.70;99.90;;;;;;5100079;28;20666;-76
2023/08/02 08:04:09;;;;;;;2.87;2.67;;;24.80;99.90;;;;;;5110593;28;20187;-82
2023/08/02 08:06:35;;;;;;;3.00;2.70;;;24.80;99.90;;;;;;5108396;28;21177;-77
2023/08/02 08:09:01;;;;;;;2.93;2.47;;;24.90;99.90;;;;;;5099240;28;20415;-77
2023/08/02 08:11:28;;;;;;;2.40;2.20;;;24.90;99.90;;;;;;5097046;28;20193;-77
2023/08/02 08:13:54;;;;;;;2.53;2.33;;;25.00;99.90;;;;;;5101780;28;20413;-82
2023/08/02 08:16:20;;;;;;;2.53;2.30;;;25.00;99.90;;;;;;5099513;28;20430;-82
2023/08/02 08:18:46;;;;;;;3.60;2.30;;;25.10;99.90;;;;;;5119319;28;20231;-82
2023/08/02 08:21:11;;;;;;;2.20;2.00;;;25.20;99.90;;;;;;5118981;27;20212;-82
2023/08/02 08:23:37;;;;;;;2.50;2.33;;;25.30;99.90;;;;;;5118323;28;20602;-81
2023/08/02 08:26:03;;;;;;;27.27;5.13;;;25.30;99.90;;;;;;5118466;27;20228;-77
2023/08/02 08:28:29;;;;;;;2.50;2.20;;;25.40;99.90;;;;;;5123772;27;20167;-77
2023/08/02 08:31:02;;;;;;;2.30;2.10;;;25.50;99.90;;;;;;5122572;27;20810;-77
2023/08/02 08:33:29;;;;;;;4.10;2.50;;;25.50;99.90;;;;;;5094348;27;20415;-77
2023/08/02 08:35:54;;;;;;;4.27;2.30;;;25.60;99.90;;;;;;5120929;27;20980;-83
2023/08/02 08:38:20;;;;;;;2.80;2.43;;;25.70;99.90;;;;;;5103087;27;20431;-81
2023/08/02 08:40:53;;;;;;;2.10;2.00;;;25.70;99.90;;;;;;5102371;27;20721;-78
2023/08/02 08:43:20;;;;;;;2.30;2.10;;;25.80;99.90;;;;;;5116088;27;20254;-77
2023/08/02 08:45:46;;;;;;;2.57;2.37;;;25.80;99.90;;;;;;5101130;27;20447;-82
2023/08/02 08:48:12;;;;;;;6.00;3.23;;;25.90;99.90;;;;;;5119847;27;20493;-77
2023/08/02 08:50:41;;;;;;;2.50;2.30;;;25.90;99.90;;;;;;5099827;27;20473;-82
2023/08/02 08:53:10;;;;;;;5.60;2.83;;;25.90;99.90;;;;;;5114922;27;20688;-77
2023/08/02 08:55:36;;;;;;;4.10;2.40;;;25.90;99.90;;;;;;5115956;27;20780;-77
2023/08/02 08:58:02;;;;;;;4.93;2.20;;;26.00;99.90;;;;;;5116347;27;20423;-77
2023/08/02 09:00:31;;;;;;;2.03;1.93;;;26.00;99.90;;;;;;5115156;27;20554;-83
2023/08/02 09:03:01;;;;;;;6.47;2.47;;;26.10;99.90;;;;;;5124151;27;20183;-82
2023/08/02 09:05:31;;;;;;;2.40;2.20;;;26.20;99.90;;;;;;5122000;27;20550;-83
2023/08/02 09:08:00;;;;;;;3.33;2.23;;;26.30;99.90;;;;;;5119440;27;20439;-78
2023/08/02 09:10:27;;;;;;;2.20;2.00;;;26.30;99.90;;;;;;5096151;27;20534;-77
2023/08/02 09:12:52;;;;;;;1.90;1.70;;;26.30;99.90;;;;;;5124493;27;20640;-77
2023/08/02 09:15:18;;;;;;;4.30;1.93;;;26.40;99.90;;;;;;5119203;27;20452;-77
2023/08/02 09:17:54;;;;;;;2.70;2.27;;;26.40;99.90;;;;;;5117029;27;20568;-82
2023/08/02 09:20:25;;;;;;;2.10;1.90;;;26.50;99.90;;;;;;5080184;28;20473;-82
2023/08/02 09:22:51;;;;;;;3.40;2.27;;;26.60;99.90;;;;;;5080567;28;20425;-83
2023/08/02 09:25:35;;;;;;;3.53;2.50;;;26.60;99.90;;;;;;5075647;28;20498;-82
2023/08/02 09:28:11;;;;;;;2.10;1.80;;;26.60;99.90;;;;;;5074729;28;20605;-83
2023/08/02 09:30:37;;;;;;;4.10;2.00;;;26.80;99.90;;;;;;5081974;28;20706;-82
2023/08/02 09:33:05;;;;;;;2.30;2.10;;;26.80;99.90;;;;;;5092872;28;20449;-78
2023/08/02 09:35:33;;;;;;;3.20;2.17;;;26.80;99.90;;;;;;5078333;28;20538;-82
2023/08/02 09:37:59;;;;;;;2.83;2.10;;;26.80;99.90;;;;;;5077378;28;20704;-76
2023/08/02 09:40:36;;;;;;;3.20;1.90;;;26.90;99.90;;;;;;5079527;28;20476;-83
2023/08/02 09:43:03;;;;;;;2.40;2.20;;;27.00;99.90;;;;;;5080161;28;20432;-82
2023/08/02 09:45:34;;;;;;;2.17;1.97;;;27.00;99.90;;;;;;5079435;28;20460;-81
2023/08/02 09:48:00;;;;;;;3.30;2.33;;;27.10;99.90;;;;;;5070869;28;20482;-77
2023/08/02 09:50:27;;;;;;;2.30;2.10;;;27.20;99.90;;;;;;5075807;28;20461;-82
2023/08/02 09:52:53;;;;;;;2.20;2.00;;;27.20;99.90;;;;;;5081765;28;20719;-82
2023/08/02 09:55:20;;;;;;;2.30;2.10;;;27.20;99.90;;;;;;5077914;28;20465;-80
2023/08/02 09:57:47;;;;;;;2.47;2.27;;;27.20;99.90;;;;;;5082488;28;20433;-82
2023/08/02 10:00:14;;;;;;;2.50;2.30;;;27.20;99.90;;;;;;5061611;28;20477;-77
2023/08/02 10:02:39;;;;;;;2.40;2.20;;;27.20;99.90;;;;;;5080580;28;20424;-82
2023/08/02 10:05:07;;;;;;;2.23;2.10;;;27.20;99.90;;;;;;5076380;28;21000;-77
2023/08/02 10:07:48;;;;;;;4.20;2.13;;;27.20;99.90;;;;;;5075158;28;20180;-82
2023/08/02 10:10:18;;;;;;;2.30;1.90;;;27.20;99.90;;;;;;5081274;28;20498;-83
2023/08/02 10:12:51;;;;;;;3.47;2.33;;;27.20;99.90;;;;;;5081711;28;21125;-81
2023/08/02 10:15:17;;;;;;;2.17;1.97;;;27.10;99.90;;;;;;5079578;28;20612;-77
2023/08/02 10:17:45;;;;;;;2.23;1.97;;;27.10;99.90;;;;;;5076473;28;20413;-77
2023/08/02 10:20:12;;;;;;;2.40;2.20;;;27.20;99.90;;;;;;5097413;28;20729;-80
2023/08/02 10:22:40;;;;;;;2.87;2.40;;;27.20;99.90;;;;;;5102011;27;21095;-77
2023/08/02 10:25:07;;;;;;;2.30;2.00;;;27.30;99.90;;;;;;5091705;28;20445;-77
2023/08/02 10:27:35;;;;;;;2.60;2.40;;;27.30;99.90;;;;;;5098422;28;20435;-80
2023/08/02 10:30:03;;;;;;;2.73;2.53;;;27.40;99.90;;;;;;5097359;28;20564;-77
2023/08/02 10:32:28;;;;;;;5.00;2.30;;;27.40;99.90;;;;;;5100375;27;20430;-80
2023/08/02 10:34:54;;;;;;;2.80;2.60;;;27.40;99.90;;;;;;5086543;28;20932;-80
2023/08/02 10:37:20;;;;;;;1.83;1.73;;;27.40;99.90;;;;;;5099989;28;20161;-80
2023/08/02 10:39:46;;;;;;;2.30;2.10;;;27.40;99.90;;;;;;5101050;28;20776;-80
2023/08/02 10:42:17;;;;;;;2.30;2.20;;;27.50;99.90;;;;;;5099597;28;20439;-76
2023/08/02 10:44:55;;;;;;;5.33;4.27;;;27.50;99.90;;;;;;5100771;27;20568;-80
2023/08/02 10:47:34;;;;;;;9.50;3.00;;;27.60;99.90;;;;;;5099835;28;20716;-77
2023/08/02 10:50:03;;;;;;;39.03;5.77;;;27.60;99.90;;;;;;5080747;28;20434;-86
2023/08/02 10:52:37;;;;;;;4.70;2.47;;;27.70;99.90;;;;;;5081286;28;20405;-75
2023/08/02 10:55:06;;;;;;;2.60;2.20;;;27.60;99.90;;;;;;5097912;28;20456;-92
2023/08/02 10:57:32;;;;;;;2.83;2.50;;;27.70;99.90;;;;;;5101183;28;20408;-84
2023/08/02 10:59:58;;;;;;;2.20;1.77;;;27.80;99.90;;;;;;5103835;28;20463;-84
2023/08/02 11:02:27;;;;;;;2.30;2.17;;;27.80;99.90;;;;;;5101387;28;20436;-75
2023/08/02 11:04:53;;;;;;;2.80;2.43;;;27.90;99.90;;;;;;5101880;28;20268;-73
2023/08/02 11:07:22;;;;;;;2.73;2.00;;;27.80;99.90;;;;;;5090396;28;20420;-87
2023/08/02 11:09:53;;;;;;;26.50;4.70;;;27.80;99.90;;;;;;5079091;28;20464;-75
2023/08/02 11:12:20;;;;;;;2.00;1.90;;;27.80;99.90;;;;;;5097095;28;20422;-85
2023/08/02 11:14:49;;;;;;;19.57;3.57;;;27.80;99.90;;;;;;5092017;28;21245;-89
2023/08/02 11:17:19;;;;;;;2.30;1.87;;;27.80;99.90;;;;;;5098237;28;20430;-89
2023/08/02 11:19:53;;;;;;;4.70;2.10;;;27.80;99.90;;;;;;5098990;28;20480;-84
2023/08/02 11:22:19;;;;;;;5.27;2.60;;;27.70;99.90;;;;;;5095511;28;20482;-86
2023/08/02 11:24:52;;;;;;;3.50;1.63;;;27.80;99.90;;;;;;5098277;28;20967;-87
2023/08/02 11:27:23;;;;;;;2.80;1.77;;;27.80;99.90;;;;;;5089025;28;20946;-88
2023/08/02 11:30:07;;;;;;;2.70;2.03;;;27.80;99.90;;;;;;5101916;28;20441;-83
2023/08/02 11:32:41;;;;;;;3.00;2.30;;;27.90;99.90;;;;;;5101767;28;20431;-74
2023/08/02 11:35:07;;;;;;;3.30;3.00;;;27.90;99.90;;;;;;5118458;28;20469;-74
2023/08/02 11:37:37;;;;;;;3.77;3.43;;;27.90;99.90;;;;;;5103079;28;20448;-76
2023/08/02 11:40:03;;;;;;;5.43;4.93;;;28.00;99.90;;;;;;5102104;28;20507;-74
2023/08/02 11:42:29;;;;;;;2.50;2.30;;;28.00;99.90;;;;;;5102403;28;20437;-76
2023/08/02 11:44:54;;;;;;;2.37;1.93;;;28.00;99.80;;;;;;5101475;28;20452;-76
2023/08/02 11:47:20;;;;;;;2.10;1.90;;;28.00;99.70;;;;;;5100205;28;20182;-74
2023/08/02 11:49:56;;;;;;;2.23;2.03;;;28.00;99.90;;;;;;5099399;28;20192;-85
2023/08/02 11:52:30;;;;;;;5.60;2.63;;;28.00;99.90;;;;;;5098837;28;20253;-77
2023/08/02 11:54:56;;;;;;;1.97;1.87;;;28.10;99.90;;;;;;5097965;28;20708;-75
2023/08/02 11:57:23;;;;;;;3.13;2.33;;;28.20;99.90;;;;;;5112955;28;20410;-73
2023/08/02 11:59:50;;;;;;;2.40;2.20;;;28.20;99.90;;;;;;5098420;28;20470;-75
2023/08/02 12:02:34;;;;;;;1.83;1.73;;;28.20;99.30;;;;;;5101356;28;20427;-74
2023/08/02 12:05:08;;;;;;;1.73;1.63;;;28.30;99.80;;;;;;5089712;28;20456;-75
2023/08/02 12:07:35;;;;;;;1.67;1.57;;;28.30;99.70;;;;;;5108273;27;20518;-86
2023/08/02 12:10:03;;;;;;;1.50;1.40;;;28.40;99.00;;;;;;5088110;28;20434;-87
2023/08/02 12:12:30;;;;;;;2.53;1.90;;;28.40;99.40;;;;;;5106970;28;20433;-86
2023/08/02 12:14:56;;;;;;;2.03;1.80;;;28.40;99.50;;;;;;5106209;28;20495;-85
2023/08/02 12:17:24;;;;;;;1.80;1.70;;;28.50;98.70;;;;;;5122084;27;20458;-74
2023/08/02 12:19:50;;;;;;;3.50;1.60;;;28.60;98.30;;;;;;5122954;27;20476;-74
2023/08/02 12:22:18;;;;;;;1.80;1.70;;;28.60;99.00;;;;;;5121929;27;20422;-82
2023/08/02 12:24:44;;;;;;;3.67;2.07;;;28.60;98.00;;;;;;5105860;28;20457;-84
2023/08/02 12:27:19;;;;;;;4.50;1.77;;;28.60;97.50;;;;;;5102923;28;21018;-76
2023/08/02 12:29:47;;;;;;;2.23;1.67;;;28.60;97.90;;;;;;5102774;28;20439;-82
2023/08/02 12:32:28;;;;;;;2.50;2.30;;;28.70;97.30;;;;;;5099521;28;20485;-76
2023/08/02 12:34:54;;;;;;;2.27;2.07;;;28.70;97.10;;;;;;5085734;28;20829;-80
2023/08/02 12:37:20;;;;;;;2.13;1.93;;;28.70;97.40;;;;;;5099768;28;20441;-76
2023/08/02 12:39:45;;;;;;;1.93;1.83;;;28.70;96.60;;;;;;5098391;28;20217;-84
2023/08/02 12:42:11;;;;;;;12.43;2.33;;;28.70;96.60;;;;;;5092114;28;20182;-84
2023/08/02 12:44:37;;;;;;;1.60;1.50;;;28.80;96.60;;;;;;5100837;28;20259;-79